sensor_id;sensor_type;location;lat;lon;timestamp;P1;durP1;ratioP1;P2;durP2;ratioP2
28245;SDS011;15510;52.512;13.300;2022-12-18T00:03:56;38.73;;;17.97;;
28245;SDS011;15510;52.512;13.300;2022-12-18T00:06:23;38.27;;;16.87;;
28245;SDS011;15510;52.512;13.300;2022-12-18T00:08:50;38.93;;;16.50;;
28245;SDS011;15510;52.512;13.300;2022-12-18T00:11:17;38.00;;;18.27;;
28245;SDS011;15510;52.512;13.300;2022-12-18T00:13:45;36.00;;;16.40;;
28245;SDS011;15510;52.512;13.300;2022-12-18T00:16:13;38.70;;;17.73;;
28245;SDS011;15510;52.512;13.300;2022-12-18T00:18:41;39.13;;;17.70;;
28245;SDS011;15510;52.512;13.300;2022-12-18T00:21:08;38.20;;;17.67;;
28245;SDS011;15510;52.512;13.300;2022-12-18T00:23:36;39.97;;;17.53;;
28245;SDS011;15510;52.512;13.300;2022-12-18T00:26:04;36.00;;;15.73;;
28245;SDS011;15510;52.512;13.300;2022-12-18T00:28:32;33.03;;;14.63;;
28245;SDS011;15510;52.512;13.300;2022-12-18T00:31:02;36.10;;;15.53;;
28245;SDS011;15510;52.512;13.300;2022-12-18T00:33:30;38.43;;;16.27;;
28245;SDS011;15510;52.512;13.300;2022-12-18T00:36:00;42.60;;;17.93;;
28245;SDS011;15510;52.512;13.300;2022-12-18T00:38:34;31.27;;;14.87;;
28245;SDS011;15510;52.512;13.300;2022-12-18T00:41:00;35.73;;;15.50;;
28245;SDS011;15510;52.512;13.300;2022-12-18T00:43:26;31.90;;;14.43;;
28245;SDS011;15510;52.512;13.300;2022-12-18T00:45:52;37.13;;;16.00;;
28245;SDS011;15510;52.512;13.300;2022-12-18T00:48:18;31.03;;;15.73;;
28245;SDS011;15510;52.512;13.300;2022-12-18T00:50:44;35.47;;;14.47;;
28245;SDS011;15510;52.512;13.300;2022-12-18T00:53:11;36.57;;;16.03;;
28245;SDS011;15510;52.512;13.300;2022-12-18T00:55:40;32.23;;;15.23;;
28245;SDS011;15510;52.512;13.300;2022-12-18T00:58:07;35.73;;;16.67;;
28245;SDS011;15510;52.512;13.300;2022-12-18T01:00:34;34.97;;;15.90;;
28245;SDS011;15510;52.512;13.300;2022-12-18T01:03:01;34.90;;;15.73;;
28245;SDS011;15510;52.512;13.300;2022-12-18T01:05:27;43.00;;;17.40;;
28245;SDS011;15510;52.512;13.300;2022-12-18T01:07:53;38.07;;;17.07;;
28245;SDS011;15510;52.512;13.300;2022-12-18T01:10:20;45.13;;;17.50;;
28245;SDS011;15510;52.512;13.300;2022-12-18T01:12:45;36.60;;;16.50;;
28245;SDS011;15510;52.512;13.300;2022-12-18T01:15:12;41.03;;;17.57;;
28245;SDS011;15510;52.512;13.300;2022-12-18T01:17:39;37.20;;;16.17;;
28245;SDS011;15510;52.512;13.300;2022-12-18T01:20:05;37.70;;;16.60;;
28245;SDS011;15510;52.512;13.300;2022-12-18T01:22:33;41.90;;;16.47;;
28245;SDS011;15510;52.512;13.300;2022-12-18T01:25:00;42.67;;;17.13;;
28245;SDS011;15510;52.512;13.300;2022-12-18T01:27:26;41.10;;;16.97;;
28245;SDS011;15510;52.512;13.300;2022-12-18T01:29:52;42.40;;;17.87;;
28245;SDS011;15510;52.512;13.300;2022-12-18T01:32:18;39.30;;;17.40;;
28245;SDS011;15510;52.512;13.300;2022-12-18T01:34:44;45.03;;;18.00;;
28245;SDS011;15510;52.512;13.300;2022-12-18T01:37:10;41.33;;;17.33;;
28245;SDS011;15510;52.512;13.300;2022-12-18T01:39:36;38.97;;;16.17;;
28245;SDS011;15510;52.512;13.300;2022-12-18T01:42:10;43.87;;;18.53;;
28245;SDS011;15510;52.512;13.300;2022-12-18T01:47:43;41.03;;;17.73;;
28245;SDS011;15510;52.512;13.300;2022-12-18T01:52:47;41.30;;;18.37;;
28245;SDS011;15510;52.512;13.300;2022-12-18T01:55:22;47.53;;;19.17;;
28245;SDS011;15510;52.512;13.300;2022-12-18T01:57:51;42.57;;;17.63;;
28245;SDS011;15510;52.512;13.300;2022-12-18T02:00:19;43.87;;;17.40;;
28245;SDS011;15510;52.512;13.300;2022-12-18T02:02:46;42.20;;;18.03;;
28245;SDS011;15510;52.512;13.300;2022-12-18T02:05:20;41.07;;;17.53;;
28245;SDS011;15510;52.512;13.300;2022-12-18T02:08:10;43.67;;;18.50;;
28245;SDS011;15510;52.512;13.300;2022-12-18T02:13:44;36.17;;;16.00;;
28245;SDS011;15510;52.512;13.300;2022-12-18T02:16:24;34.00;;;15.87;;
28245;SDS011;15510;52.512;13.300;2022-12-18T02:27:59;44.23;;;17.20;;
28245;SDS011;15510;52.512;13.300;2022-12-18T02:30:27;38.73;;;16.00;;
28245;SDS011;15510;52.512;13.300;2022-12-18T02:32:56;39.80;;;17.00;;
28245;SDS011;15510;52.512;13.300;2022-12-18T02:35:24;43.17;;;18.20;;
28245;SDS011;15510;52.512;13.300;2022-12-18T02:37:55;37.93;;;16.10;;
28245;SDS011;15510;52.512;13.300;2022-12-18T02:40:23;37.23;;;17.00;;
28245;SDS011;15510;52.512;13.300;2022-12-18T02:42:51;37.80;;;15.33;;
28245;SDS011;15510;52.512;13.300;2022-12-18T02:45:18;42.57;;;17.63;;
28245;SDS011;15510;52.512;13.300;2022-12-18T02:47:46;37.60;;;16.53;;
28245;SDS011;15510;52.512;13.300;2022-12-18T02:58:17;39.00;;;16.57;;
28245;SDS011;15510;52.512;13.300;2022-12-18T03:03:24;36.43;;;15.87;;
28245;SDS011;15510;52.512;13.300;2022-12-18T03:08:39;32.00;;;14.80;;
28245;SDS011;15510;52.512;13.300;2022-12-18T03:11:09;34.60;;;15.67;;
28245;SDS011;15510;52.512;13.300;2022-12-18T03:13:51;38.13;;;14.57;;
28245;SDS011;15510;52.512;13.300;2022-12-18T03:16:22;34.27;;;15.47;;
28245;SDS011;15510;52.512;13.300;2022-12-18T03:18:55;34.43;;;14.73;;
28245;SDS011;15510;52.512;13.300;2022-12-18T03:21:26;39.27;;;15.97;;
28245;SDS011;15510;52.512;13.300;2022-12-18T03:23:57;39.23;;;16.20;;
28245;SDS011;15510;52.512;13.300;2022-12-18T03:26:25;38.73;;;15.90;;
28245;SDS011;15510;52.512;13.300;2022-12-18T03:28:58;37.90;;;16.10;;
28245;SDS011;15510;52.512;13.300;2022-12-18T03:31:28;35.57;;;15.67;;
28245;SDS011;15510;52.512;13.300;2022-12-18T03:34:04;42.00;;;17.20;;
28245;SDS011;15510;52.512;13.300;2022-12-18T03:36:41;40.77;;;16.43;;
28245;SDS011;15510;52.512;13.300;2022-12-18T03:39:07;40.00;;;16.07;;
28245;SDS011;15510;52.512;13.300;2022-12-18T03:44:29;42.93;;;16.63;;
28245;SDS011;15510;52.512;13.300;2022-12-18T03:49:56;41.50;;;16.63;;
28245;SDS011;15510;52.512;13.300;2022-12-18T03:52:33;40.37;;;16.93;;
28245;SDS011;15510;52.512;13.300;2022-12-18T03:55:08;43.27;;;16.93;;
28245;SDS011;15510;52.512;13.300;2022-12-18T03:57:36;36.90;;;15.53;;
28245;SDS011;15510;52.512;13.300;2022-12-18T04:00:11;36.20;;;15.50;;
28245;SDS011;15510;52.512;13.300;2022-12-18T04:02:41;41.87;;;16.80;;
28245;SDS011;15510;52.512;13.300;2022-12-18T04:05:11;41.87;;;16.83;;
28245;SDS011;15510;52.512;13.300;2022-12-18T04:07:40;39.80;;;15.97;;
28245;SDS011;15510;52.512;13.300;2022-12-18T04:10:09;37.30;;;16.23;;
28245;SDS011;15510;52.512;13.300;2022-12-18T04:12:37;39.77;;;16.00;;
28245;SDS011;15510;52.512;13.300;2022-12-18T04:15:04;42.67;;;17.30;;
28245;SDS011;15510;52.512;13.300;2022-12-18T04:17:30;37.80;;;15.77;;
28245;SDS011;15510;52.512;13.300;2022-12-18T04:19:57;43.17;;;17.33;;
28245;SDS011;15510;52.512;13.300;2022-12-18T04:22:23;41.43;;;16.63;;
28245;SDS011;15510;52.512;13.300;2022-12-18T04:24:54;47.57;;;17.87;;
28245;SDS011;15510;52.512;13.300;2022-12-18T04:27:28;43.43;;;16.80;;
28245;SDS011;15510;52.512;13.300;2022-12-18T04:29:56;43.90;;;16.70;;
28245;SDS011;15510;52.512;13.300;2022-12-18T04:32:22;42.53;;;17.43;;
28245;SDS011;15510;52.512;13.300;2022-12-18T04:34:48;43.97;;;17.90;;
28245;SDS011;15510;52.512;13.300;2022-12-18T04:37:14;44.70;;;17.87;;
28245;SDS011;15510;52.512;13.300;2022-12-18T04:39:41;44.50;;;18.33;;
28245;SDS011;15510;52.512;13.300;2022-12-18T04:42:14;42.60;;;17.70;;
28245;SDS011;15510;52.512;13.300;2022-12-18T04:44:39;45.23;;;18.90;;
28245;SDS011;15510;52.512;13.300;2022-12-18T04:47:05;45.03;;;18.00;;
28245;SDS011;15510;52.512;13.300;2022-12-18T04:49:32;42.03;;;18.47;;
28245;SDS011;15510;52.512;13.300;2022-12-18T04:51:58;52.93;;;19.27;;
28245;SDS011;15510;52.512;13.300;2022-12-18T04:54:23;52.73;;;19.90;;
28245;SDS011;15510;52.512;13.300;2022-12-18T04:56:50;50.47;;;20.40;;
28245;SDS011;15510;52.512;13.300;2022-12-18T04:59:16;54.90;;;20.83;;
28245;SDS011;15510;52.512;13.300;2022-12-18T05:01:41;50.73;;;20.17;;
28245;SDS011;15510;52.512;13.300;2022-12-18T05:04:07;48.37;;;19.37;;
28245;SDS011;15510;52.512;13.300;2022-12-18T05:06:33;48.83;;;20.17;;
28245;SDS011;15510;52.512;13.300;2022-12-18T05:08:59;53.27;;;21.67;;
28245;SDS011;15510;52.512;13.300;2022-12-18T05:11:24;56.33;;;21.77;;
28245;SDS011;15510;52.512;13.300;2022-12-18T05:13:50;52.80;;;22.63;;
28245;SDS011;15510;52.512;13.300;2022-12-18T05:16:16;58.97;;;22.17;;
28245;SDS011;15510;52.512;13.300;2022-12-18T05:18:41;60.63;;;24.13;;
28245;SDS011;15510;52.512;13.300;2022-12-18T05:21:07;54.87;;;21.37;;
28245;SDS011;15510;52.512;13.300;2022-12-18T05:23:35;56.87;;;22.43;;
28245;SDS011;15510;52.512;13.300;2022-12-18T05:26:01;66.00;;;25.57;;
28245;SDS011;15510;52.512;13.300;2022-12-18T05:28:29;66.30;;;26.00;;
28245;SDS011;15510;52.512;13.300;2022-12-18T05:30:57;68.00;;;24.23;;
28245;SDS011;15510;52.512;13.300;2022-12-18T05:33:24;65.57;;;25.00;;
28245;SDS011;15510;52.512;13.300;2022-12-18T05:35:58;68.10;;;26.07;;
28245;SDS011;15510;52.512;13.300;2022-12-18T05:38:26;58.03;;;24.57;;
28245;SDS011;15510;52.512;13.300;2022-12-18T05:40:53;65.33;;;24.57;;
28245;SDS011;15510;52.512;13.300;2022-12-18T05:43:22;68.73;;;24.73;;
28245;SDS011;15510;52.512;13.300;2022-12-18T05:45:48;71.77;;;25.67;;
28245;SDS011;15510;52.512;13.300;2022-12-18T05:48:15;74.17;;;26.17;;
28245;SDS011;15510;52.512;13.300;2022-12-18T05:50:42;69.37;;;25.17;;
28245;SDS011;15510;52.512;13.300;2022-12-18T05:53:10;69.53;;;24.93;;
28245;SDS011;15510;52.512;13.300;2022-12-18T05:55:38;56.63;;;24.83;;
28245;SDS011;15510;52.512;13.300;2022-12-18T05:58:05;62.80;;;22.50;;
28245;SDS011;15510;52.512;13.300;2022-12-18T06:00:33;56.07;;;22.27;;
28245;SDS011;15510;52.512;13.300;2022-12-18T06:03:00;60.10;;;22.23;;
28245;SDS011;15510;52.512;13.300;2022-12-18T06:05:26;55.70;;;21.60;;
28245;SDS011;15510;52.512;13.300;2022-12-18T06:07:52;54.30;;;21.87;;
28245;SDS011;15510;52.512;13.300;2022-12-18T06:10:18;56.30;;;23.17;;
28245;SDS011;15510;52.512;13.300;2022-12-18T06:12:44;58.53;;;22.17;;
28245;SDS011;15510;52.512;13.300;2022-12-18T06:15:10;57.00;;;21.20;;
28245;SDS011;15510;52.512;13.300;2022-12-18T06:17:36;56.93;;;21.77;;
28245;SDS011;15510;52.512;13.300;2022-12-18T06:20:02;51.63;;;21.00;;
28245;SDS011;15510;52.512;13.300;2022-12-18T06:22:30;50.17;;;19.60;;
28245;SDS011;15510;52.512;13.300;2022-12-18T06:24:56;49.73;;;20.30;;
28245;SDS011;15510;52.512;13.300;2022-12-18T06:27:22;49.47;;;18.87;;
28245;SDS011;15510;52.512;13.300;2022-12-18T06:29:48;40.37;;;18.30;;
28245;SDS011;15510;52.512;13.300;2022-12-18T06:32:14;43.33;;;19.13;;
28245;SDS011;15510;52.512;13.300;2022-12-18T06:34:39;49.33;;;19.50;;
28245;SDS011;15510;52.512;13.300;2022-12-18T06:37:05;44.23;;;19.93;;
28245;SDS011;15510;52.512;13.300;2022-12-18T06:39:31;58.13;;;21.33;;
28245;SDS011;15510;52.512;13.300;2022-12-18T06:41:56;51.33;;;21.53;;
28245;SDS011;15510;52.512;13.300;2022-12-18T06:44:22;50.20;;;21.60;;
28245;SDS011;15510;52.512;13.300;2022-12-18T06:46:48;54.90;;;22.47;;
28245;SDS011;15510;52.512;13.300;2022-12-18T06:49:14;57.80;;;23.77;;
28245;SDS011;15510;52.512;13.300;2022-12-18T06:51:41;58.07;;;23.37;;
28245;SDS011;15510;52.512;13.300;2022-12-18T06:54:07;55.00;;;24.03;;
28245;SDS011;15510;52.512;13.300;2022-12-18T06:56:33;64.50;;;23.33;;
28245;SDS011;15510;52.512;13.300;2022-12-18T06:58:59;50.70;;;21.60;;
28245;SDS011;15510;52.512;13.300;2022-12-18T07:01:25;55.90;;;23.17;;
28245;SDS011;15510;52.512;13.300;2022-12-18T07:03:52;53.13;;;22.37;;
28245;SDS011;15510;52.512;13.300;2022-12-18T07:06:20;56.23;;;21.80;;
28245;SDS011;15510;52.512;13.300;2022-12-18T07:08:48;51.60;;;21.60;;
28245;SDS011;15510;52.512;13.300;2022-12-18T07:11:15;54.10;;;21.30;;
28245;SDS011;15510;52.512;13.300;2022-12-18T07:13:42;48.60;;;21.17;;
28245;SDS011;15510;52.512;13.300;2022-12-18T07:16:08;57.23;;;23.07;;
28245;SDS011;15510;52.512;13.300;2022-12-18T07:18:36;61.83;;;23.27;;
28245;SDS011;15510;52.512;13.300;2022-12-18T07:21:05;61.60;;;23.70;;
28245;SDS011;15510;52.512;13.300;2022-12-18T07:23:32;57.80;;;24.20;;
28245;SDS011;15510;52.512;13.300;2022-12-18T07:26:18;58.67;;;24.30;;
28245;SDS011;15510;52.512;13.300;2022-12-18T07:28:44;61.20;;;23.50;;
28245;SDS011;15510;52.512;13.300;2022-12-18T07:31:11;57.37;;;21.60;;
28245;SDS011;15510;52.512;13.300;2022-12-18T07:33:39;64.33;;;26.30;;
28245;SDS011;15510;52.512;13.300;2022-12-18T07:36:06;61.87;;;23.67;;
28245;SDS011;15510;52.512;13.300;2022-12-18T07:38:32;60.57;;;24.47;;
28245;SDS011;15510;52.512;13.300;2022-12-18T07:41:07;55.20;;;22.40;;
28245;SDS011;15510;52.512;13.300;2022-12-18T07:43:35;56.37;;;22.43;;
28245;SDS011;15510;52.512;13.300;2022-12-18T07:46:01;48.87;;;20.63;;
28245;SDS011;15510;52.512;13.300;2022-12-18T07:48:28;52.83;;;21.23;;
28245;SDS011;15510;52.512;13.300;2022-12-18T07:51:04;49.03;;;19.93;;
28245;SDS011;15510;52.512;13.300;2022-12-18T07:53:31;47.27;;;20.77;;
28245;SDS011;15510;52.512;13.300;2022-12-18T07:55:58;49.13;;;20.73;;
28245;SDS011;15510;52.512;13.300;2022-12-18T07:58:27;51.30;;;20.10;;
28245;SDS011;15510;52.512;13.300;2022-12-18T08:00:54;46.50;;;18.83;;
28245;SDS011;15510;52.512;13.300;2022-12-18T08:03:26;46.80;;;18.80;;
28245;SDS011;15510;52.512;13.300;2022-12-18T08:05:52;45.00;;;18.37;;
28245;SDS011;15510;52.512;13.300;2022-12-18T08:08:18;40.87;;;18.83;;
28245;SDS011;15510;52.512;13.300;2022-12-18T08:10:43;42.83;;;18.17;;
28245;SDS011;15510;52.512;13.300;2022-12-18T08:13:09;36.40;;;16.93;;
28245;SDS011;15510;52.512;13.300;2022-12-18T08:15:35;49.10;;;18.43;;
28245;SDS011;15510;52.512;13.300;2022-12-18T08:18:00;50.43;;;17.27;;
28245;SDS011;15510;52.512;13.300;2022-12-18T08:20:26;46.07;;;18.07;;
28245;SDS011;15510;52.512;13.300;2022-12-18T08:22:52;43.67;;;18.83;;
28245;SDS011;15510;52.512;13.300;2022-12-18T08:25:19;58.20;;;21.33;;
28245;SDS011;15510;52.512;13.300;2022-12-18T08:27:44;47.67;;;19.50;;
28245;SDS011;15510;52.512;13.300;2022-12-18T08:30:10;45.30;;;19.57;;
28245;SDS011;15510;52.512;13.300;2022-12-18T08:32:36;43.27;;;19.40;;
28245;SDS011;15510;52.512;13.300;2022-12-18T08:35:02;47.47;;;19.10;;
28245;SDS011;15510;52.512;13.300;2022-12-18T08:37:28;44.27;;;18.47;;
28245;SDS011;15510;52.512;13.300;2022-12-18T08:39:54;45.73;;;17.20;;
28245;SDS011;15510;52.512;13.300;2022-12-18T08:42:19;44.97;;;17.97;;
28245;SDS011;15510;52.512;13.300;2022-12-18T08:45:04;42.37;;;18.53;;
28245;SDS011;15510;52.512;13.300;2022-12-18T08:47:30;43.57;;;17.00;;
28245;SDS011;15510;52.512;13.300;2022-12-18T08:49:55;45.20;;;18.53;;
28245;SDS011;15510;52.512;13.300;2022-12-18T08:52:21;44.73;;;18.23;;
28245;SDS011;15510;52.512;13.300;2022-12-18T08:54:47;44.53;;;19.07;;
28245;SDS011;15510;52.512;13.300;2022-12-18T08:57:13;49.97;;;20.57;;
28245;SDS011;15510;52.512;13.300;2022-12-18T08:59:39;48.47;;;20.13;;
28245;SDS011;15510;52.512;13.300;2022-12-18T09:02:05;45.50;;;19.17;;
28245;SDS011;15510;52.512;13.300;2022-12-18T09:04:30;46.87;;;17.90;;
28245;SDS011;15510;52.512;13.300;2022-12-18T09:06:56;42.87;;;18.17;;
28245;SDS011;15510;52.512;13.300;2022-12-18T09:09:22;39.63;;;18.53;;
28245;SDS011;15510;52.512;13.300;2022-12-18T09:11:47;45.40;;;19.23;;
28245;SDS011;15510;52.512;13.300;2022-12-18T09:14:13;43.57;;;18.77;;
28245;SDS011;15510;52.512;13.300;2022-12-18T09:16:39;42.80;;;18.67;;
28245;SDS011;15510;52.512;13.300;2022-12-18T09:19:05;43.13;;;17.50;;
28245;SDS011;15510;52.512;13.300;2022-12-18T09:21:32;43.50;;;18.70;;
28245;SDS011;15510;52.512;13.300;2022-12-18T09:23:59;40.83;;;17.07;;
28245;SDS011;15510;52.512;13.300;2022-12-18T09:26:26;51.23;;;18.93;;
28245;SDS011;15510;52.512;13.300;2022-12-18T09:28:52;40.93;;;17.77;;
28245;SDS011;15510;52.512;13.300;2022-12-18T09:31:18;43.23;;;19.87;;
28245;SDS011;15510;52.512;13.300;2022-12-18T09:33:46;43.07;;;18.27;;
28245;SDS011;15510;52.512;13.300;2022-12-18T09:36:12;39.20;;;18.33;;
28245;SDS011;15510;52.512;13.300;2022-12-18T09:38:39;46.57;;;19.20;;
28245;SDS011;15510;52.512;13.300;2022-12-18T09:41:06;43.17;;;19.93;;
28245;SDS011;15510;52.512;13.300;2022-12-18T09:47:11;48.13;;;19.30;;
28245;SDS011;15510;52.512;13.300;2022-12-18T09:50:01;43.80;;;19.27;;
28245;SDS011;15510;52.512;13.300;2022-12-18T09:52:33;48.07;;;22.03;;
28245;SDS011;15510;52.512;13.300;2022-12-18T09:55:22;41.90;;;19.47;;
28245;SDS011;15510;52.512;13.300;2022-12-18T09:58:19;35.00;;;16.77;;
28245;SDS011;15510;52.512;13.300;2022-12-18T10:01:01;37.67;;;16.70;;
28245;SDS011;15510;52.512;13.300;2022-12-18T10:03:27;42.10;;;17.20;;
28245;SDS011;15510;52.512;13.300;2022-12-18T10:06:00;40.37;;;18.47;;
28245;SDS011;15510;52.512;13.300;2022-12-18T10:20:04;41.07;;;17.27;;
28245;SDS011;15510;52.512;13.300;2022-12-18T10:28:29;37.23;;;17.27;;
28245;SDS011;15510;52.512;13.300;2022-12-18T10:30:56;35.67;;;15.87;;
28245;SDS011;15510;52.512;13.300;2022-12-18T10:33:23;37.73;;;16.17;;
28245;SDS011;15510;52.512;13.300;2022-12-18T10:35:53;43.27;;;17.20;;
28245;SDS011;15510;52.512;13.300;2022-12-18T10:43:30;34.13;;;16.10;;
28245;SDS011;15510;52.512;13.300;2022-12-18T10:48:54;37.00;;;16.83;;
28245;SDS011;15510;52.512;13.300;2022-12-18T10:54:02;35.77;;;16.70;;
28245;SDS011;15510;52.512;13.300;2022-12-18T10:56:31;41.03;;;17.27;;
28245;SDS011;15510;52.512;13.300;2022-12-18T10:59:03;41.30;;;18.30;;
28245;SDS011;15510;52.512;13.300;2022-12-18T11:01:44;40.40;;;17.50;;
28245;SDS011;15510;52.512;13.300;2022-12-18T11:04:40;37.27;;;18.03;;
28245;SDS011;15510;52.512;13.300;2022-12-18T11:07:14;36.33;;;15.97;;
28245;SDS011;15510;52.512;13.300;2022-12-18T11:09:40;37.17;;;15.80;;
28245;SDS011;15510;52.512;13.300;2022-12-18T11:12:27;36.63;;;17.00;;
28245;SDS011;15510;52.512;13.300;2022-12-18T11:14:53;35.53;;;16.90;;
28245;SDS011;15510;52.512;13.300;2022-12-18T11:17:25;38.27;;;17.47;;
28245;SDS011;15510;52.512;13.300;2022-12-18T11:20:00;34.13;;;16.30;;
28245;SDS011;15510;52.512;13.300;2022-12-18T11:22:35;39.10;;;17.27;;
28245;SDS011;15510;52.512;13.300;2022-12-18T11:27:59;41.90;;;17.83;;
28245;SDS011;15510;52.512;13.300;2022-12-18T11:30:27;43.30;;;18.83;;
28245;SDS011;15510;52.512;13.300;2022-12-18T11:46:08;36.37;;;16.57;;
28245;SDS011;15510;52.512;13.300;2022-12-18T11:51:32;38.37;;;18.90;;
28245;SDS011;15510;52.512;13.300;2022-12-18T11:54:12;36.23;;;16.17;;
28245;SDS011;15510;52.512;13.300;2022-12-18T11:56:42;47.87;;;18.20;;
28245;SDS011;15510;52.512;13.300;2022-12-18T11:59:16;42.60;;;18.50;;
28245;SDS011;15510;52.512;13.300;2022-12-18T12:02:20;43.17;;;18.63;;
28245;SDS011;15510;52.512;13.300;2022-12-18T12:08:04;30.37;;;15.03;;
28245;SDS011;15510;52.512;13.300;2022-12-18T12:22:18;35.30;;;16.47;;
28245;SDS011;15510;52.512;13.300;2022-12-18T12:30:17;37.53;;;17.20;;
28245;SDS011;15510;52.512;13.300;2022-12-18T12:38:16;34.70;;;17.20;;
28245;SDS011;15510;52.512;13.300;2022-12-18T12:41:05;32.83;;;16.60;;
28245;SDS011;15510;52.512;13.300;2022-12-18T12:43:55;34.67;;;16.03;;
28245;SDS011;15510;52.512;13.300;2022-12-18T12:46:23;35.60;;;17.17;;
28245;SDS011;15510;52.512;13.300;2022-12-18T12:49:03;35.77;;;16.87;;
28245;SDS011;15510;52.512;13.300;2022-12-18T12:51:35;36.03;;;16.97;;
28245;SDS011;15510;52.512;13.300;2022-12-18T12:54:05;36.20;;;17.13;;
28245;SDS011;15510;52.512;13.300;2022-12-18T12:56:38;34.03;;;16.07;;
28245;SDS011;15510;52.512;13.300;2022-12-18T12:59:34;31.17;;;15.47;;
28245;SDS011;15510;52.512;13.300;2022-12-18T13:07:39;33.70;;;17.07;;
28245;SDS011;15510;52.512;13.300;2022-12-18T13:13:06;32.57;;;16.67;;
28245;SDS011;15510;52.512;13.300;2022-12-18T13:15:44;34.57;;;16.90;;
28245;SDS011;15510;52.512;13.300;2022-12-18T13:18:17;40.17;;;18.57;;
28245;SDS011;15510;52.512;13.300;2022-12-18T13:23:25;35.57;;;16.33;;
28245;SDS011;15510;52.512;13.300;2022-12-18T13:25:57;37.33;;;17.73;;
28245;SDS011;15510;52.512;13.300;2022-12-18T13:31:10;35.60;;;17.73;;
28245;SDS011;15510;52.512;13.300;2022-12-18T13:33:40;36.53;;;17.13;;
28245;SDS011;15510;52.512;13.300;2022-12-18T13:39:58;34.33;;;17.70;;
28245;SDS011;15510;52.512;13.300;2022-12-18T13:44:37;35.50;;;17.23;;
28245;SDS011;15510;52.512;13.300;2022-12-18T13:47:27;32.73;;;16.87;;
28245;SDS011;15510;52.512;13.300;2022-12-18T13:49:57;31.50;;;17.13;;
28245;SDS011;15510;52.512;13.300;2022-12-18T13:52:25;35.33;;;17.57;;
28245;SDS011;15510;52.512;13.300;2022-12-18T13:54:59;40.90;;;20.60;;
28245;SDS011;15510;52.512;13.300;2022-12-18T13:57:33;36.40;;;19.40;;
28245;SDS011;15510;52.512;13.300;2022-12-18T14:02:47;34.30;;;18.17;;
28245;SDS011;15510;52.512;13.300;2022-12-18T14:08:00;36.13;;;18.67;;
28245;SDS011;15510;52.512;13.300;2022-12-18T14:10:44;34.30;;;18.67;;
28245;SDS011;15510;52.512;13.300;2022-12-18T14:13:15;35.20;;;18.77;;
28245;SDS011;15510;52.512;13.300;2022-12-18T14:15:47;34.57;;;17.67;;
28245;SDS011;15510;52.512;13.300;2022-12-18T14:18:23;39.33;;;19.50;;
28245;SDS011;15510;52.512;13.300;2022-12-18T14:21:03;38.00;;;19.60;;
28245;SDS011;15510;52.512;13.300;2022-12-18T14:23:37;37.93;;;19.80;;
28245;SDS011;15510;52.512;13.300;2022-12-18T14:28:52;45.70;;;21.43;;
28245;SDS011;15510;52.512;13.300;2022-12-18T14:31:23;44.90;;;21.00;;
28245;SDS011;15510;52.512;13.300;2022-12-18T14:33:51;40.57;;;21.70;;
28245;SDS011;15510;52.512;13.300;2022-12-18T14:36:26;44.17;;;22.57;;
28245;SDS011;15510;52.512;13.300;2022-12-18T14:38:54;48.20;;;23.07;;
28245;SDS011;15510;52.512;13.300;2022-12-18T14:41:21;46.17;;;23.33;;
28245;SDS011;15510;52.512;13.300;2022-12-18T14:43:48;43.40;;;21.80;;
28245;SDS011;15510;52.512;13.300;2022-12-18T14:49:02;46.93;;;23.63;;
28245;SDS011;15510;52.512;13.300;2022-12-18T14:52:34;47.37;;;22.83;;
28245;SDS011;15510;52.512;13.300;2022-12-18T14:54:47;48.30;;;24.40;;
28245;SDS011;15510;52.512;13.300;2022-12-18T14:57:18;42.43;;;22.90;;
28245;SDS011;15510;52.512;13.300;2022-12-18T14:59:48;42.43;;;21.57;;
28245;SDS011;15510;52.512;13.300;2022-12-18T15:02:25;39.37;;;21.20;;
28245;SDS011;15510;52.512;13.300;2022-12-18T15:05:02;32.63;;;19.27;;
28245;SDS011;15510;52.512;13.300;2022-12-18T15:07:43;39.30;;;20.07;;
28245;SDS011;15510;52.512;13.300;2022-12-18T15:10:15;39.30;;;21.43;;
28245;SDS011;15510;52.512;13.300;2022-12-18T15:12:45;40.23;;;22.23;;
28245;SDS011;15510;52.512;13.300;2022-12-18T15:25:44;35.10;;;19.37;;
28245;SDS011;15510;52.512;13.300;2022-12-18T15:28:57;33.57;;;17.53;;
28245;SDS011;15510;52.512;13.300;2022-12-18T15:33:38;27.57;;;15.43;;
28245;SDS011;15510;52.512;13.300;2022-12-18T15:36:09;30.67;;;16.47;;
28245;SDS011;15510;52.512;13.300;2022-12-18T15:38:36;26.83;;;14.43;;
28245;SDS011;15510;52.512;13.300;2022-12-18T15:41:02;27.53;;;15.80;;
28245;SDS011;15510;52.512;13.300;2022-12-18T15:43:28;28.03;;;14.70;;
28245;SDS011;15510;52.512;13.300;2022-12-18T15:46:08;25.23;;;15.97;;
28245;SDS011;15510;52.512;13.300;2022-12-18T15:48:39;28.53;;;16.73;;
28245;SDS011;15510;52.512;13.300;2022-12-18T15:51:23;25.17;;;14.73;;
28245;SDS011;15510;52.512;13.300;2022-12-18T15:53:55;26.57;;;15.03;;
28245;SDS011;15510;52.512;13.300;2022-12-18T15:56:23;23.83;;;13.77;;
28245;SDS011;15510;52.512;13.300;2022-12-18T15:59:11;28.57;;;14.77;;
28245;SDS011;15510;52.512;13.300;2022-12-18T16:01:39;32.63;;;15.93;;
28245;SDS011;15510;52.512;13.300;2022-12-18T16:04:06;30.03;;;18.30;;
28245;SDS011;15510;52.512;13.300;2022-12-18T16:06:34;29.50;;;16.40;;
28245;SDS011;15510;52.512;13.300;2022-12-18T16:08:59;30.37;;;16.77;;
28245;SDS011;15510;52.512;13.300;2022-12-18T16:11:27;31.00;;;19.17;;
28245;SDS011;15510;52.512;13.300;2022-12-18T16:16:49;26.20;;;15.97;;
28245;SDS011;15510;52.512;13.300;2022-12-18T16:19:16;28.47;;;16.23;;
28245;SDS011;15510;52.512;13.300;2022-12-18T16:21:42;28.77;;;16.53;;
28245;SDS011;15510;52.512;13.300;2022-12-18T16:24:13;28.73;;;16.27;;
28245;SDS011;15510;52.512;13.300;2022-12-18T16:26:41;25.33;;;14.67;;
28245;SDS011;15510;52.512;13.300;2022-12-18T16:29:07;23.63;;;13.73;;
28245;SDS011;15510;52.512;13.300;2022-12-18T16:31:34;27.87;;;15.70;;
28245;SDS011;15510;52.512;13.300;2022-12-18T16:34:19;27.93;;;15.63;;
28245;SDS011;15510;52.512;13.300;2022-12-18T16:36:51;27.87;;;15.47;;
28245;SDS011;15510;52.512;13.300;2022-12-18T16:39:19;27.73;;;15.47;;
28245;SDS011;15510;52.512;13.300;2022-12-18T16:41:45;25.63;;;15.33;;
28245;SDS011;15510;52.512;13.300;2022-12-18T16:44:12;26.63;;;15.77;;
28245;SDS011;15510;52.512;13.300;2022-12-18T16:46:38;29.57;;;15.63;;
28245;SDS011;15510;52.512;13.300;2022-12-18T16:49:04;23.10;;;14.03;;
28245;SDS011;15510;52.512;13.300;2022-12-18T16:51:30;29.90;;;16.67;;
28245;SDS011;15510;52.512;13.300;2022-12-18T16:53:56;33.57;;;15.70;;
28245;SDS011;15510;52.512;13.300;2022-12-18T16:56:22;25.63;;;15.23;;
28245;SDS011;15510;52.512;13.300;2022-12-18T16:58:54;29.97;;;16.13;;
28245;SDS011;15510;52.512;13.300;2022-12-18T17:01:21;26.43;;;15.63;;
28245;SDS011;15510;52.512;13.300;2022-12-18T17:03:55;28.90;;;16.13;;
28245;SDS011;15510;52.512;13.300;2022-12-18T17:06:21;30.30;;;16.57;;